Decoded Metar for LFGJ (DOLE in FRANCE) (IATA:DLE) | Meteo·Mobile Aviation Weather
aviador You're here:

LFGJ Decoded Metar

DOLE in FRANCE
Report Time2020-02-23 11:00:00
UTC Time2020-02-23 11:24:49
Flight Rules vfr VFR
Wind210° at 17 kt
W.Decomp.*RWY 23: 16.0 kt HW 5.8 kt LCW
Visibility9999 m
Phenomena:N/A
Clouds:N/A
Expected CloudBase > 4,000 ft AGL from Temp-Dew spread
CeilingNone
Temp13°C (ISA -1)
Dew Point03°C (51% RH)
AAT5.4°C
QNH1029 hPa
Density Alt125 ft
Elevation643 ft
Report Wrong Elevation
Raw Report
LFGJ 231100Z AUTO 21017KT CAVOK 13/03 Q1029 NOSIG=

Extra information for LFGJ:More info

Metar Taf Metar & Taf Last 4 Metars F.Rules Stats Wind Profile Meteogram Temp Stats Airport Information Weather charts Add Link Nearby VenuesMetar ALERT Operation Metar Decoded Social comments